Terminal Aerodrome Forecast
Issued by NWS Northern Indiana

Home | Current Version | Previous Version | Graphics & Text | Print | Product List | Glossary On
Versions: 1 2 3 4 5 6 7 8 9 10 11 12 13 14 15 16
000
FTUS43 KIWX 261730
TAFFWA
TAF
KFWA 261730Z 2618/2718 34005KT P6SM BKN020 BKN035
     FM270000 31003KT P6SM SCT020 BKN040
     FM270800 00000KT 4SM BR FEW040
      TEMPO 2711/2713 1/2SM FG BKN005
     FM271400 VRB04KT P6SM SCT150=

USA.gov is the U.S. government's official web portal to all federal, state and local government web resources and services.